Time;durP1;ratioP1;P1;durP2;ratioP2;P2;SDS_P1;SDS_P2;PMS_P1;PMS_P2;Temp;Humidity;BMP_temperature;BMP_pressure;BME280_temperature;BME280_humidity;BME280_pressure;Samples;Min_cycle;Max_cycle;Signal;HPM_P1;HPM_P2
2020/12/20 00:02:14;;;;;;;76.30;38.93;;;;;;;1.55;88.37;101158.77;126641;1098;104443;-80
2020/12/20 00:04:41;;;;;;;71.93;39.23;;;;;;;1.57;88.44;101164.80;126448;1100;106522;-79
2020/12/20 00:07:21;;;;;;;76.57;39.17;;;;;;;1.57;88.46;101157.08;126502;1098;104567;-79
2020/12/20 00:09:48;;;;;;;74.93;39.13;;;;;;;1.60;88.66;101162.28;126672;1098;104443;-78
2020/12/20 00:12:16;;;;;;;73.40;39.07;;;;;;;1.61;88.40;101165.72;126426;1099;104538;-78
2020/12/20 00:14:43;;;;;;;79.87;40.33;;;;;;;1.62;88.19;101165.77;126497;1098;104532;-78
2020/12/20 00:17:12;;;;;;;73.03;39.57;;;;;;;1.61;88.33;101169.16;126434;1100;104390;-79
2020/12/20 00:19:44;;;;;;;71.03;37.80;;;;;;;1.59;88.42;101173.41;126417;1099;104374;-79
2020/12/20 00:22:19;;;;;;;76.47;39.53;;;;;;;1.56;87.92;101170.78;126496;1098;104404;-79
2020/12/20 00:24:47;;;;;;;74.30;38.47;;;;;;;1.55;88.16;101163.91;126402;1093;104497;-79
2020/12/20 00:27:15;;;;;;;75.03;40.37;;;;;;;1.53;88.27;101169.86;126404;1094;104378;-78
2020/12/20 00:29:42;;;;;;;77.03;39.63;;;;;;;1.51;88.26;101172.41;126410;1098;104445;-78
2020/12/20 00:32:11;;;;;;;75.63;38.27;;;;;;;1.50;88.37;101173.23;126638;1099;104312;-79
2020/12/20 00:34:41;;;;;;;70.23;36.13;;;;;;;1.50;88.23;101179.25;126441;1093;104394;-79
2020/12/20 00:37:08;;;;;;;70.67;36.63;;;;;;;1.51;88.33;101167.27;126710;1098;104539;-78
2020/12/20 00:39:36;;;;;;;67.77;35.80;;;;;;;1.52;88.35;101174.14;126408;1100;104509;-78
2020/12/20 00:42:06;;;;;;;67.70;37.27;;;;;;;1.53;88.37;101180.14;126424;1093;104890;-78
2020/12/20 00:44:34;;;;;;;68.97;36.70;;;;;;;1.53;88.30;101180.14;126475;1093;104910;-78
2020/12/20 00:47:04;;;;;;;71.63;37.60;;;;;;;1.51;88.35;101168.13;126460;1093;104426;-78
2020/12/20 00:49:34;;;;;;;74.80;38.07;;;;;;;1.52;88.30;101174.14;126424;1099;104545;-78
2020/12/20 00:52:07;;;;;;;76.30;37.57;;;;;;;1.51;88.47;101173.27;126447;1096;104544;-78
2020/12/20 00:54:38;;;;;;;75.07;38.20;;;;;;;1.49;88.60;101164.66;126438;1096;104223;-77
2020/12/20 00:57:06;;;;;;;79.70;39.50;;;;;;;1.48;88.45;101162.06;126755;1093;104442;-77
2020/12/20 00:59:34;;;;;;;76.57;37.33;;;;;;;1.47;88.87;101165.48;126687;1093;104301;-78
2020/12/20 01:02:02;;;;;;;69.90;37.00;;;;;;;1.47;88.62;101175.76;126668;1099;104394;-78
2020/12/20 01:04:31;;;;;;;73.93;36.73;;;;;;;1.46;88.36;101174.03;126626;1098;104531;-79
2020/12/20 01:06:59;;;;;;;75.73;38.60;;;;;;;1.50;88.93;101162.96;126678;1099;103786;-78
2020/12/20 01:09:27;;;;;;;74.87;38.27;;;;;;;1.52;88.71;101163.85;126655;1093;104493;-79
2020/12/20 01:11:59;;;;;;;71.10;36.13;;;;;;;1.54;88.63;101171.59;126459;1093;104523;-79
2020/12/20 01:14:46;;;;;;;75.87;37.17;;;;;;;1.55;88.55;101168.18;126451;1093;104372;-79
2020/12/20 01:17:14;;;;;;;76.20;36.83;;;;;;;1.56;88.59;101170.78;126545;1098;104549;-78
2020/12/20 01:19:44;;;;;;;77.57;36.67;;;;;;;1.57;88.73;101166.50;126449;1100;104893;-77
2020/12/20 01:22:11;;;;;;;79.50;37.90;;;;;;;1.57;88.77;101158.79;126432;1098;104542;-79
2020/12/20 01:24:39;;;;;;;69.67;35.07;;;;;;;1.55;88.62;101157.89;126668;1098;104525;-78
2020/12/20 01:27:12;;;;;;;84.27;38.93;;;;;;;1.56;88.67;101157.06;126670;1098;104484;-78
2020/12/20 01:29:40;;;;;;;78.93;38.00;;;;;;;1.57;88.48;101146.80;126608;1093;104420;-78
2020/12/20 01:32:07;;;;;;;77.13;37.87;;;;;;;1.57;88.48;101143.36;126554;1099;104530;-78
2020/12/20 01:34:36;;;;;;;79.27;39.07;;;;;;;1.57;89.02;101143.36;126685;1099;104449;-78
2020/12/20 01:37:04;;;;;;;80.97;38.27;;;;;;;1.57;88.67;101144.23;126485;1099;103387;-79
2020/12/20 01:39:35;;;;;;;83.70;38.93;;;;;;;1.58;88.80;101142.52;126738;1099;104458;-78
2020/12/20 01:42:03;;;;;;;84.80;39.27;;;;;;;1.58;88.85;101148.53;126695;1093;104570;-78
2020/12/20 01:44:33;;;;;;;75.73;36.70;;;;;;;1.61;88.75;101152.86;126719;1093;104523;-78
2020/12/20 01:47:02;;;;;;;79.90;37.70;;;;;;;1.62;88.94;101152.92;126726;1098;104525;-78
2020/12/20 01:49:29;;;;;;;78.47;36.90;;;;;;;1.65;88.68;101144.39;126813;1098;104397;-79
2020/12/20 01:51:57;;;;;;;77.13;36.97;;;;;;;1.67;89.10;101138.43;126465;1100;104455;-79
2020/12/20 01:54:25;;;;;;;69.90;35.75;;;;;;;1.68;88.68;101140.16;126690;1093;104564;-79
2020/12/20 01:57:05;;;;;;;76.10;36.47;;;;;;;1.69;88.43;101134.18;126498;1093;104421;-78
2020/12/20 01:59:56;;;;;;;76.30;35.70;;;;;;;1.69;88.72;101128.17;126603;1093;103301;-78
2020/12/20 02:02:26;;;;;;;74.70;34.60;;;;;;;1.71;88.81;101137.64;126776;1098;103234;-77
2020/12/20 02:04:53;;;;;;;74.40;36.35;;;;;;;1.73;88.95;101132.52;126662;1098;104938;-78
2020/12/20 02:07:22;;;;;;;82.60;37.03;;;;;;;1.73;88.58;101138.53;126422;1096;104628;-78
2020/12/20 02:09:51;;;;;;;78.83;36.53;;;;;;;1.75;88.41;101131.70;126668;1098;104903;-78
2020/12/20 02:12:25;;;;;;;78.07;37.17;;;;;;;1.76;89.01;101137.72;126700;1093;104395;-78
2020/12/20 02:15:05;;;;;;;82.47;38.03;;;;;;;1.78;88.50;101142.04;126530;1100;104408;-78
2020/12/20 02:17:33;;;;;;;78.07;37.13;;;;;;;1.79;88.87;101143.77;126520;1093;104573;-78
2020/12/20 02:20:16;;;;;;;75.63;36.67;;;;;;;1.78;88.74;101139.47;126701;1098;104519;-77
2020/12/20 02:23:09;;;;;;;78.30;35.90;;;;;;;1.77;88.71;101139.45;126454;1093;104424;-79
2020/12/20 02:25:43;;;;;;;72.55;35.30;;;;;;;1.74;88.60;101140.27;126506;1099;104878;-78
2020/12/20 02:28:26;;;;;;;78.83;36.63;;;;;;;1.73;88.61;101141.10;126731;1098;104519;-80
2020/12/20 02:31:07;;;;;;;77.67;35.80;;;;;;;1.71;88.40;101139.34;126517;1099;104429;-79
2020/12/20 02:33:34;;;;;;;72.63;33.93;;;;;;;1.69;88.84;101141.03;126534;1093;104622;-79
2020/12/20 02:36:05;;;;;;;80.33;38.07;;;;;;;1.64;88.86;101143.52;126679;1093;104532;-78
2020/12/20 02:38:32;;;;;;;78.07;36.23;;;;;;;1.61;89.07;101132.29;126476;1093;104391;-78
2020/12/20 02:41:16;;;;;;;80.87;37.70;;;;;;;1.56;89.08;101139.92;126526;1100;105268;-78
2020/12/20 02:43:46;;;;;;;81.77;37.37;;;;;;;1.54;89.11;101133.89;126477;1100;103398;-78
2020/12/20 02:46:17;;;;;;;82.10;37.70;;;;;;;1.52;89.05;101140.72;126554;1093;104365;-78
2020/12/20 02:48:52;;;;;;;81.65;37.63;;;;;;;1.50;89.33;101139.83;126490;1099;104526;-78
2020/12/20 02:51:20;;;;;;;75.63;35.43;;;;;;;1.49;89.09;101143.23;126459;1099;104496;-78
2020/12/20 02:53:48;;;;;;;77.10;36.23;;;;;;;1.48;89.40;101131.22;126734;1098;104369;-78
2020/12/20 02:56:25;;;;;;;81.80;35.85;;;;;;;1.47;89.45;101130.35;126505;1099;104369;-78
2020/12/20 02:58:56;;;;;;;80.00;36.53;;;;;;;1.47;89.27;101114.93;126455;1100;104472;-79
2020/12/20 03:01:26;;;;;;;80.03;35.60;;;;;;;1.48;89.39;101115.80;126764;1093;104420;-79
2020/12/20 03:03:54;;;;;;;71.93;33.90;;;;;;;1.48;89.64;101113.22;126649;1098;104369;-78
2020/12/20 03:06:21;;;;;;;67.03;30.00;;;;;;;1.47;89.78;101108.92;126676;1093;104649;-78
2020/12/20 03:08:54;;;;;;;66.07;32.63;;;;;;;1.49;89.79;101102.10;126660;1098;103126;-78
2020/12/20 03:11:22;;;;;;;68.00;33.93;;;;;;;1.50;89.55;101109.84;126404;1098;104388;-78
2020/12/20 03:13:50;;;;;;;63.20;32.10;;;;;;;1.53;89.98;101113.30;126506;1098;104476;-78
2020/12/20 03:16:18;;;;;;;61.80;31.90;;;;;;;1.53;89.45;101114.16;126727;1093;104379;-77
2020/12/20 03:18:45;;;;;;;66.97;33.03;;;;;;;1.53;89.32;101114.16;126685;1098;104464;-78
2020/12/20 03:21:13;;;;;;;68.03;33.43;;;;;;;1.56;89.56;101114.22;126438;1099;104624;-78
2020/12/20 03:23:51;;;;;;;66.83;32.37;;;;;;;1.58;89.73;101112.53;126578;1099;104557;-78
2020/12/20 03:26:50;;;;;;;71.87;33.67;;;;;;;1.57;89.51;101109.94;126537;1098;104554;-78
2020/12/20 03:29:33;;;;;;;69.63;31.77;;;;;;;1.57;89.53;101125.37;126649;1098;104455;-78
2020/12/20 03:32:24;;;;;;;67.03;32.83;;;;;;;1.54;89.31;101120.17;126359;1097;104618;-78
2020/12/20 03:35:03;;;;;;;62.90;31.70;;;;;;;1.53;89.82;101116.73;126432;1096;105520;-78
2020/12/20 03:37:54;;;;;;;68.97;32.37;;;;;;;1.50;89.34;101114.98;126708;1098;104426;-77
2020/12/20 03:40:25;;;;;;;69.10;33.17;;;;;;;1.49;89.79;101108.11;126458;1099;104494;-78
2020/12/20 03:42:53;;;;;;;74.20;34.17;;;;;;;1.48;89.53;101116.66;126491;1099;104389;-78
2020/12/20 03:45:21;;;;;;;65.10;32.83;;;;;;;1.48;89.88;101105.52;126674;1093;104637;-78
2020/12/20 03:47:49;;;;;;;71.23;34.07;;;;;;;1.48;90.03;101110.66;126478;1098;104521;-78
2020/12/20 03:50:18;;;;;;;69.93;33.37;;;;;;;1.47;89.58;101104.64;126667;1099;104404;-78
2020/12/20 03:52:47;;;;;;;71.60;32.33;;;;;;;1.48;89.75;101110.66;126498;1096;103313;-78
2020/12/20 03:55:23;;;;;;;64.43;31.13;;;;;;;1.48;89.63;101111.52;126705;1098;104392;-78
2020/12/20 03:57:50;;;;;;;66.97;32.77;;;;;;;1.49;89.62;101112.38;126457;1100;104442;-79
2020/12/20 04:00:22;;;;;;;71.37;34.17;;;;;;;1.50;89.81;101114.11;126653;1098;104605;-79
2020/12/20 04:03:02;;;;;;;74.20;33.63;;;;;;;1.51;89.93;101116.71;126386;1099;104567;-79
2020/12/20 04:05:31;;;;;;;67.67;32.87;;;;;;;1.49;89.58;101114.95;126448;1100;104554;-80
2020/12/20 04:07:59;;;;;;;70.00;34.15;;;;;;;1.51;89.85;101115.84;126658;1093;104481;-78
2020/12/20 04:10:27;;;;;;;69.30;32.87;;;;;;;1.51;89.74;101113.27;126480;1094;104439;-79
2020/12/20 04:12:55;;;;;;;75.63;35.20;;;;;;;1.52;89.89;101133.00;126429;1093;104980;-78
2020/12/20 04:15:24;;;;;;;70.97;31.80;;;;;;;1.53;89.83;101116.73;126400;1098;104384;-79
2020/12/20 04:17:51;;;;;;;65.87;32.73;;;;;;;1.51;90.20;101121.85;126696;1094;104443;-79
2020/12/20 04:20:19;;;;;;;67.50;33.93;;;;;;;1.52;89.82;101107.30;126679;1099;104388;-78
2020/12/20 04:22:53;;;;;;;74.43;34.80;;;;;;;1.51;89.77;101108.13;126455;1097;104455;-79
2020/12/20 04:25:22;;;;;;;65.17;31.43;;;;;;;1.51;89.94;101115.84;126661;1098;104478;-78
2020/12/20 04:28:08;;;;;;;67.83;34.07;;;;;;;1.50;89.93;101111.55;126565;1093;104628;-79
2020/12/20 04:30:37;;;;;;;64.93;33.10;;;;;;;1.49;89.84;101113.25;126639;1093;104423;-78
2020/12/20 04:33:09;;;;;;;66.00;33.53;;;;;;;1.48;89.76;101108.95;126451;1093;104417;-78
2020/12/20 04:35:37;;;;;;;66.20;33.00;;;;;;;1.49;89.90;101104.67;126419;1098;104474;-78
2020/12/20 04:38:05;;;;;;;68.10;33.50;;;;;;;1.49;89.93;101125.23;126485;1099;104434;-78
2020/12/20 04:40:38;;;;;;;69.10;33.80;;;;;;;1.48;90.04;101116.66;126596;1098;104522;-78
2020/12/20 04:43:09;;;;;;;69.57;31.90;;;;;;;1.49;89.81;101115.82;126443;1093;104468;-78
2020/12/20 04:45:38;;;;;;;68.97;33.70;;;;;;;1.49;90.18;101123.53;126490;1100;104420;-78
2020/12/20 04:48:12;;;;;;;66.07;33.70;;;;;;;1.49;89.97;101114.95;126435;1098;104478;-79
2020/12/20 04:50:50;;;;;;;69.50;33.60;;;;;;;1.50;89.89;101125.27;126485;1093;104491;-79
2020/12/20 04:53:18;;;;;;;64.37;31.23;;;;;;;1.52;89.77;101127.86;126388;1093;104381;-78
2020/12/20 04:56:03;;;;;;;60.77;30.60;;;;;;;1.49;89.44;101128.67;126484;1093;104403;-79
2020/12/20 04:58:50;;;;;;;67.23;32.93;;;;;;;1.51;89.60;101126.13;126512;1098;104436;-79
2020/12/20 05:01:18;;;;;;;61.40;29.93;;;;;;;1.51;89.70;101131.27;126677;1099;104534;-78
2020/12/20 05:03:46;;;;;;;59.00;30.20;;;;;;;1.50;89.81;101132.97;126619;1093;104497;-79
2020/12/20 05:06:16;;;;;;;66.50;32.87;;;;;;;1.51;89.40;101134.70;126601;1098;104337;-79
2020/12/20 05:08:45;;;;;;;62.10;30.47;;;;;;;1.52;89.36;101138.14;126647;1098;104474;-78
2020/12/20 05:11:38;;;;;;;69.63;34.23;;;;;;;1.53;89.77;101134.73;126409;1097;104446;-79
2020/12/20 05:14:08;;;;;;;64.17;31.27;;;;;;;1.53;89.57;101139.88;126667;1098;104574;-79
2020/12/20 05:16:45;;;;;;;62.60;32.50;;;;;;;1.54;89.93;101135.59;126449;1100;104426;-78
2020/12/20 05:19:30;;;;;;;68.37;34.67;;;;;;;1.56;89.61;101134.78;126690;1093;104651;-78
2020/12/20 05:22:22;;;;;;;68.45;33.60;;;;;;;1.56;89.49;101128.78;126500;1093;104451;-79
2020/12/20 05:24:55;;;;;;;61.63;32.13;;;;;;;1.56;89.52;101133.92;126585;1100;104855;-78
2020/12/20 05:27:30;;;;;;;65.53;33.10;;;;;;;1.56;89.54;101128.78;126684;1093;102269;-78
2020/12/20 05:30:16;;;;;;;63.70;33.23;;;;;;;1.55;89.60;101139.90;126412;1098;104594;-79
2020/12/20 05:33:07;;;;;;;66.90;33.43;;;;;;;1.54;89.34;101141.61;126409;1093;104509;-78
2020/12/20 05:35:36;;;;;;;67.10;32.97;;;;;;;1.55;89.41;101142.47;126466;1098;104317;-78
2020/12/20 05:38:05;;;;;;;61.75;32.25;;;;;;;1.54;89.56;101146.75;126465;1094;104483;-79
2020/12/20 05:40:34;;;;;;;70.50;34.30;;;;;;;1.56;89.55;101145.06;126436;1100;104465;-79
2020/12/20 05:43:05;;;;;;;70.90;34.40;;;;;;;1.55;89.62;101143.34;126655;1099;103377;-78
2020/12/20 05:45:37;;;;;;;69.90;34.27;;;;;;;1.54;89.73;101145.88;126641;1098;104459;-79
2020/12/20 05:48:14;;;;;;;69.67;35.20;;;;;;;1.54;89.51;101151.89;126460;1096;102735;-78
2020/12/20 05:51:00;;;;;;;68.40;33.50;;;;;;;1.54;89.61;101151.02;126648;1093;104401;-79
2020/12/20 05:53:29;;;;;;;71.57;34.70;;;;;;;1.53;89.51;101149.30;126472;1093;104369;-79
2020/12/20 05:56:00;;;;;;;69.27;34.00;;;;;;;1.54;89.53;101162.17;126688;1098;103863;-79
2020/12/20 05:58:28;;;;;;;69.07;34.10;;;;;;;1.55;89.52;101158.77;126498;1093;104571;-78
2020/12/20 06:00:57;;;;;;;74.70;34.93;;;;;;;1.55;89.54;101161.33;126498;1096;104455;-79
2020/12/20 06:03:25;;;;;;;68.73;34.57;;;;;;;1.56;89.83;101163.06;126456;1098;104461;-79
2020/12/20 06:05:53;;;;;;;70.27;34.97;;;;;;;1.57;89.71;101166.50;126441;1093;104506;-79
2020/12/20 06:08:22;;;;;;;68.30;33.53;;;;;;;1.60;89.82;101176.84;126547;1098;104481;-79
2020/12/20 06:10:53;;;;;;;68.40;35.30;;;;;;;1.60;89.94;101167.42;126586;1098;104981;-78
2020/12/20 06:13:24;;;;;;;71.77;34.67;;;;;;;1.62;89.75;101177.77;126528;1099;104199;-78
2020/12/20 06:15:54;;;;;;;67.83;32.23;;;;;;;1.62;89.46;101178.63;126674;1098;104449;-78
2020/12/20 06:18:26;;;;;;;68.57;34.37;;;;;;;1.63;89.40;101182.94;126438;1093;104430;-78
2020/12/20 06:20:58;;;;;;;68.50;34.27;;;;;;;1.63;89.29;101182.94;126489;1099;104682;-79
2020/12/20 06:23:32;;;;;;;74.43;36.83;;;;;;;1.64;89.70;101182.09;126425;1100;104914;-78
2020/12/20 06:26:02;;;;;;;68.63;35.60;;;;;;;1.63;89.53;101180.36;126491;1093;104474;-78
2020/12/20 06:28:32;;;;;;;70.63;35.40;;;;;;;1.64;89.47;101179.52;126465;1098;104445;-79
2020/12/20 06:31:01;;;;;;;72.30;35.07;;;;;;;1.66;89.70;101188.12;126670;1093;102702;-79
2020/12/20 06:33:45;;;;;;;75.57;37.93;;;;;;;1.64;89.38;101182.09;126709;1093;105290;-78
2020/12/20 06:36:14;;;;;;;77.03;37.50;;;;;;;1.66;89.30;101189.83;126406;1098;104276;-78
2020/12/20 06:38:55;;;;;;;75.43;36.70;;;;;;;1.66;89.91;101182.98;126528;1099;104442;-78
2020/12/20 06:41:37;;;;;;;74.40;37.50;;;;;;;1.67;89.56;101187.29;126637;1093;104529;-78
2020/12/20 06:44:15;;;;;;;79.93;38.97;;;;;;;1.69;89.54;101193.33;126604;1098;104548;-79
2020/12/20 06:46:44;;;;;;;75.90;38.03;;;;;;;1.68;89.51;101186.45;126689;1098;102867;-78
2020/12/20 06:49:34;;;;;;;77.27;37.37;;;;;;;1.69;89.49;101190.75;126665;1098;104420;-78
2020/12/20 06:52:17;;;;;;;76.50;37.67;;;;;;;1.67;89.66;101194.14;126714;1093;104526;-78
2020/12/20 06:55:00;;;;;;;79.60;37.67;;;;;;;1.66;89.59;101194.98;126679;1099;104391;-78
2020/12/20 06:57:27;;;;;;;86.57;39.57;;;;;;;1.65;89.99;101201.83;126717;1093;104391;-78
2020/12/20 06:59:55;;;;;;;83.03;40.00;;;;;;;1.66;89.82;101198.41;126521;1099;104507;-78
2020/12/20 07:02:42;;;;;;;77.23;39.13;;;;;;;1.65;89.72;101206.97;126652;1093;104237;-78
2020/12/20 07:05:41;;;;;;;75.13;36.73;;;;;;;1.66;89.80;101202.69;126539;1098;104547;-78
2020/12/20 07:08:23;;;;;;;77.17;37.60;;;;;;;1.67;89.94;101197.58;126673;1093;104528;-78
2020/12/20 07:11:02;;;;;;;79.87;39.53;;;;;;;1.69;89.81;101207.89;126537;1093;102636;-78
2020/12/20 07:13:42;;;;;;;84.80;40.30;;;;;;;1.70;90.12;101215.63;126566;1099;104445;-78
2020/12/20 07:16:12;;;;;;;80.07;39.20;;;;;;;1.71;89.68;101212.22;126671;1098;104631;-78
2020/12/20 07:19:02;;;;;;;81.60;39.57;;;;;;;1.72;89.71;101210.52;126471;1100;104534;-78
2020/12/20 07:21:29;;;;;;;80.37;38.13;;;;;;;1.73;89.59;101212.25;126435;1100;104381;-79
2020/12/20 07:24:04;;;;;;;77.83;38.57;;;;;;;1.74;89.61;101219.98;126681;1093;104407;-79
2020/12/20 07:26:32;;;;;;;75.00;37.57;;;;;;;1.75;89.77;101214.00;126658;1098;104648;-79
2020/12/20 07:29:02;;;;;;;77.93;37.40;;;;;;;1.76;89.52;101209.73;126403;1095;104458;-79
2020/12/20 07:31:30;;;;;;;80.20;39.27;;;;;;;1.78;89.52;101214.05;126702;1098;104439;-79
2020/12/20 07:33:58;;;;;;;75.43;38.57;;;;;;;1.79;89.59;101218.36;126475;1093;104477;-79
2020/12/20 07:36:27;;;;;;;79.30;38.83;;;;;;;1.80;89.73;101217.55;126714;1098;104427;-79
2020/12/20 07:38:54;;;;;;;73.73;37.63;;;;;;;1.80;89.70;101216.69;126689;1093;104583;-78
2020/12/20 07:41:24;;;;;;;75.97;36.87;;;;;;;1.82;89.60;101220.16;126434;1100;104189;-79
2020/12/20 07:43:52;;;;;;;70.23;35.37;;;;;;;1.83;89.51;101224.45;126433;1098;103161;-79
2020/12/20 07:46:22;;;;;;;75.10;37.30;;;;;;;1.84;89.58;101222.75;126478;1100;104515;-79
2020/12/20 07:48:50;;;;;;;66.57;33.17;;;;;;;1.84;89.89;101221.05;126705;1093;104449;-79
2020/12/20 07:51:24;;;;;;;72.80;36.03;;;;;;;1.85;89.25;101219.34;126458;1098;104408;-78
2020/12/20 07:53:53;;;;;;;67.60;34.97;;;;;;;1.87;89.54;101233.09;126499;1100;104503;-79
2020/12/20 07:56:25;;;;;;;71.17;34.93;;;;;;;1.87;89.27;101233.09;126485;1098;104397;-78
2020/12/20 07:58:58;;;;;;;67.70;34.77;;;;;;;1.90;89.35;101233.14;126652;1098;104381;-79
2020/12/20 08:01:26;;;;;;;71.50;37.17;;;;;;;1.89;89.33;101239.99;126448;1094;101887;-78
2020/12/20 08:04:20;;;;;;;69.63;35.87;;;;;;;1.91;89.24;101246.03;126690;1098;104545;-78
2020/12/20 08:06:48;;;;;;;71.00;35.83;;;;;;;1.92;89.16;101241.75;126561;1098;104535;-77
2020/12/20 08:09:26;;;;;;;67.87;35.60;;;;;;;1.94;89.25;101240.08;126685;1098;104398;-78
2020/12/20 08:11:55;;;;;;;69.13;35.53;;;;;;;1.94;89.34;101240.94;126481;1093;104439;-78
2020/12/20 08:14:24;;;;;;;71.70;36.70;;;;;;;1.97;89.38;101255.56;126460;1093;102043;-78
2020/12/20 08:16:53;;;;;;;72.27;36.07;;;;;;;1.97;89.01;101247.84;126462;1100;104545;-78
2020/12/20 08:19:26;;;;;;;70.23;36.87;;;;;;;1.98;89.29;101258.19;126662;1093;104526;-78
2020/12/20 08:22:05;;;;;;;72.60;37.67;;;;;;;1.98;89.73;101262.47;126463;1093;104531;-79
2020/12/20 08:24:36;;;;;;;73.27;36.73;;;;;;;1.99;89.29;101269.35;126415;1096;104314;-78
2020/12/20 08:27:24;;;;;;;77.67;38.30;;;;;;;1.98;89.40;101273.63;126447;1093;103311;-78
2020/12/20 08:29:53;;;;;;;75.67;38.47;;;;;;;1.97;89.06;101265.85;126624;1100;104499;-78
2020/12/20 08:32:28;;;;;;;84.03;40.37;;;;;;;1.97;89.37;101260.70;126409;1096;104523;-78
2020/12/20 08:35:17;;;;;;;79.37;38.20;;;;;;;1.95;89.24;101264.96;126462;1093;104421;-78
2020/12/20 08:37:46;;;;;;;78.47;37.77;;;;;;;1.93;89.39;101269.21;126694;1099;104423;-79
2020/12/20 08:40:15;;;;;;;72.90;37.20;;;;;;;1.91;89.68;101265.75;126539;1100;104469;-78
2020/12/20 08:42:46;;;;;;;77.97;40.10;;;;;;;1.88;89.41;101271.70;126435;1098;103434;-78
2020/12/20 08:45:16;;;;;;;76.27;39.43;;;;;;;1.87;89.40;101276.82;126691;1099;104546;-78
2020/12/20 08:47:45;;;;;;;79.07;39.33;;;;;;;1.85;89.84;101273.36;126462;1099;104465;-78
2020/12/20 08:50:13;;;;;;;77.37;38.87;;;;;;;1.83;89.63;101272.46;126689;1099;104446;-79
2020/12/20 08:52:41;;;;;;;85.97;41.13;;;;;;;1.80;89.44;101274.14;126659;1098;103440;-78
2020/12/20 08:55:09;;;;;;;82.83;39.73;;;;;;;1.80;89.83;101274.14;126641;1093;104403;-78
2020/12/20 08:57:36;;;;;;;89.40;41.30;;;;;;;1.80;89.78;101276.72;126408;1100;105010;-78
2020/12/20 09:00:17;;;;;;;79.43;38.93;;;;;;;1.79;89.92;101279.22;126477;1100;104391;-78
2020/12/20 09:02:44;;;;;;;85.07;41.03;;;;;;;1.79;89.71;101271.51;126655;1099;104369;-79
2020/12/20 09:05:13;;;;;;;83.30;39.97;;;;;;;1.77;90.15;101273.19;126438;1093;104391;-79
2020/12/20 09:07:49;;;;;;;80.80;40.13;;;;;;;1.78;89.94;101269.77;126692;1093;104483;-79
2020/12/20 09:10:25;;;;;;;92.57;43.33;;;;;;;1.79;90.03;101267.23;126420;1100;104225;-79
2020/12/20 09:13:11;;;;;;;86.87;41.33;;;;;;;1.80;89.88;101274.14;126698;1093;104522;-79
2020/12/20 09:15:39;;;;;;;83.27;40.93;;;;;;;1.83;89.93;101275.03;126392;1100;104901;-79
2020/12/20 09:18:19;;;;;;;86.70;41.47;;;;;;;1.83;90.17;101277.61;126451;1093;104586;-78
2020/12/20 09:20:47;;;;;;;83.57;41.27;;;;;;;1.86;90.06;101272.52;126643;1093;104522;-78
2020/12/20 09:23:25;;;;;;;82.70;40.15;;;;;;;1.89;89.88;101267.42;126419;1093;104266;-78
2020/12/20 09:26:04;;;;;;;72.20;36.77;;;;;;;1.91;89.89;101274.33;126535;1099;104420;-78
2020/12/20 09:28:33;;;;;;;79.23;39.43;;;;;;;1.94;89.78;101268.38;126563;1093;104472;-78
2020/12/20 09:31:10;;;;;;;76.93;40.20;;;;;;;1.98;90.20;101272.77;126461;1096;104455;-78
2020/12/20 09:33:37;;;;;;;;;;;;;;;2.03;89.63;101281.43;126657;1093;104862;-78
2020/12/20 09:36:23;;;;;;;71.63;37.27;;;;;;;2.05;89.98;101279.75;126409;1093;104292;-78
2020/12/20 09:38:56;;;;;;;72.73;36.93;;;;;;;2.07;89.77;101270.34;126469;1100;104433;-79
2020/12/20 09:41:28;;;;;;;77.47;40.27;;;;;;;2.09;89.70;101271.24;126416;1099;104454;-79
2020/12/20 09:43:59;;;;;;;78.93;39.03;;;;;;;2.13;89.81;101278.17;126483;1092;104382;-79
2020/12/20 09:46:29;;;;;;;67.87;36.97;;;;;;;2.15;89.82;101276.49;126469;1098;104522;-79
2020/12/20 09:48:58;;;;;;;72.67;37.83;;;;;;;2.19;90.02;101267.14;126450;1100;104333;-79
2020/12/20 09:51:26;;;;;;;71.70;39.87;;;;;;;2.22;89.63;101269.77;126486;1094;104513;-79
2020/12/20 09:53:54;;;;;;;66.87;35.73;;;;;;;2.25;89.45;101265.54;126642;1098;104491;-78
2020/12/20 09:56:23;;;;;;;70.33;37.20;;;;;;;2.25;89.27;101270.69;126685;1093;102683;-79
2020/12/20 09:58:50;;;;;;;69.37;37.37;;;;;;;2.27;89.04;101269.00;126457;1099;104541;-79
2020/12/20 10:01:19;;;;;;;63.63;34.77;;;;;;;2.28;89.53;101264.72;126358;1096;104577;-79
2020/12/20 10:03:46;;;;;;;65.53;35.83;;;;;;;2.28;88.99;101268.16;126450;1093;104477;-79
2020/12/20 10:06:15;;;;;;;68.53;35.60;;;;;;;2.29;89.38;101275.04;126460;1100;104458;-78
2020/12/20 10:08:42;;;;;;;69.90;36.70;;;;;;;2.30;89.10;101270.76;126474;1100;104456;-78
2020/12/20 10:11:14;;;;;;;69.57;38.33;;;;;;;2.29;89.25;101272.47;126689;1098;104461;-78
2020/12/20 10:13:41;;;;;;;70.20;37.83;;;;;;;2.29;89.40;101269.02;126443;1100;104260;-78
2020/12/20 10:16:09;;;;;;;62.30;33.30;;;;;;;2.31;89.55;101273.36;126604;1093;104444;-78
2020/12/20 10:18:39;;;;;;;69.00;37.70;;;;;;;2.28;88.99;101265.59;126644;1093;105573;-78
2020/12/20 10:21:08;;;;;;;63.00;34.77;;;;;;;2.30;89.08;101263.03;126613;1099;104394;-78
2020/12/20 10:23:35;;;;;;;64.03;34.37;;;;;;;2.29;88.46;101269.89;126433;1100;104482;-78
2020/12/20 10:26:03;;;;;;;56.27;31.73;;;;;;;2.32;88.50;101269.08;126651;1098;104548;-78
2020/12/20 10:28:30;;;;;;;61.15;32.85;;;;;;;2.32;88.47;101269.94;126484;1098;105635;-79
2020/12/20 10:30:57;;;;;;;65.17;34.73;;;;;;;2.36;88.50;101264.03;126421;1098;104491;-78
2020/12/20 10:33:25;;;;;;;63.50;34.73;;;;;;;2.40;88.55;101258.09;126405;1100;104411;-79
2020/12/20 10:35:52;;;;;;;63.83;34.63;;;;;;;2.41;88.60;101258.95;126642;1093;104900;-78
2020/12/20 10:38:19;;;;;;;59.53;33.23;;;;;;;2.45;88.09;101260.73;126599;1098;104462;-78
2020/12/20 10:40:47;;;;;;;57.07;32.60;;;;;;;2.47;87.88;101260.76;126629;1098;104596;-78
2020/12/20 10:43:14;;;;;;;49.37;27.43;;;;;;;2.45;87.74;101259.87;126451;1098;104545;-78
2020/12/20 10:45:41;;;;;;;48.23;28.40;;;;;;;2.43;87.31;101265.86;126759;1098;103312;-79
2020/12/20 10:48:08;;;;;;;41.50;25.00;;;;;;;2.43;87.20;101267.56;126636;1098;104471;-78
2020/12/20 10:50:36;;;;;;;45.07;25.80;;;;;;;2.40;86.64;101258.09;126666;1093;104535;-78
2020/12/20 10:53:03;;;;;;;40.93;23.83;;;;;;;2.38;86.65;101269.20;126681;1098;104515;-79
2020/12/20 10:55:37;;;;;;;44.00;25.90;;;;;;;2.37;87.06;101262.33;126683;1098;104474;-78
2020/12/20 10:58:04;;;;;;;45.03;27.67;;;;;;;2.37;87.05;101273.48;126592;1099;104452;-78
2020/12/20 11:00:32;;;;;;;42.67;25.37;;;;;;;2.38;86.81;101275.22;126413;1093;104396;-79
2020/12/20 11:02:59;;;;;;;40.00;24.07;;;;;;;2.36;86.29;101261.45;126666;1093;104487;-79
2020/12/20 11:05:28;;;;;;;42.15;25.02;;;;;;;2.37;86.65;101278.64;126659;1093;104391;-79
2020/12/20 11:07:56;;;;;;;39.23;23.50;;;;;;;2.38;86.17;101264.92;126519;1098;104513;-78
2020/12/20 11:10:25;;;;;;;42.03;25.10;;;;;;;2.38;86.49;101264.05;126451;1093;104882;-79
2020/12/20 11:12:53;;;;;;;48.70;27.17;;;;;;;2.40;86.77;101264.95;126475;1100;104554;-79
2020/12/20 11:15:20;;;;;;;38.47;21.63;;;;;;;2.42;86.01;101265.84;126695;1099;104442;-78
2020/12/20 11:17:48;;;;;;;41.40;24.20;;;;;;;2.43;86.25;101258.14;126666;1098;104531;-78
2020/12/20 11:20:15;;;;;;;40.10;24.07;;;;;;;2.45;86.41;101259.87;126471;1093;104564;-78
2020/12/20 11:22:43;;;;;;;40.33;23.43;;;;;;;2.45;86.05;101257.30;126598;1099;104506;-79
2020/12/20 11:25:10;;;;;;;36.13;22.10;;;;;;;2.47;86.34;101264.20;126648;1098;104365;-78